Time;durP1;ratioP1;P1;durP2;ratioP2;P2;SDS_P1;SDS_P2;PMS_P1;PMS_P2;Temp;Humidity;BMP_temperature;BMP_pressure;BME280_temperature;BME280_humidity;BME280_pressure;Samples;Min_cycle;Max_cycle;Signal;HPM_P1;HPM_P2
2022/07/26 00:01:30;;;;;;;;;;;;;;;21.42;57.03;100122.96;1708741;82;20918;-67
2022/07/26 00:03:56;;;;;;;;;;;;;;;21.36;57.35;100124.89;1706328;82;20177;-67
2022/07/26 00:06:24;;;;;;;;;;;;;;;21.28;57.66;100121.89;1706665;82;21355;-67
2022/07/26 00:08:51;;;;;;;;;;;;;;;21.23;57.94;100120.77;1706518;82;20177;-67
2022/07/26 00:11:17;;;;;;;;;;;;;;;21.16;58.09;100116.48;1706345;82;20229;-67
2022/07/26 00:13:45;;;;;;;;;;;;;;;21.11;58.22;100118.61;1705964;82;20200;-67
2022/07/26 00:16:13;;;;;;;;;;;;;;;21.05;58.33;100109.88;1705507;82;20087;-67
2022/07/26 00:18:40;;;;;;;;;;;;;;;21.00;58.40;100114.20;1706741;82;21221;-67
2022/07/26 00:21:07;;;;;;;;;;;;;;;20.96;58.45;100111.37;1708664;82;20156;-67
2022/07/26 00:23:33;;;;;;;;;;;;;;;20.96;58.64;100111.37;1709993;84;20147;-67
2022/07/26 00:26:00;;;;;;;;;;;;;;;20.98;58.87;100113.73;1709353;84;20230;-68
2022/07/26 00:28:26;;;;;;;;;;;;;;;20.98;59.11;100109.66;1708746;84;20191;-67
2022/07/26 00:30:53;;;;;;;;;;;;;;;20.98;59.44;100111.02;1709530;84;21162;-67
2022/07/26 00:33:19;;;;;;;;;;;;;;;20.96;59.66;100110.55;1709923;84;20174;-67
2022/07/26 00:35:46;;;;;;;;;;;;;;;20.92;59.86;100111.00;1710039;82;20151;-67
2022/07/26 00:38:12;;;;;;;;;;;;;;;20.89;60.20;100109.75;1710020;82;20167;-67
2022/07/26 00:40:39;;;;;;;;;;;;;;;20.84;60.39;100112.13;1710015;84;20144;-67
2022/07/26 00:43:06;;;;;;;;;;;;;;;20.82;60.53;100112.23;1709873;84;21315;-67
2022/07/26 00:45:33;;;;;;;;;;;;;;;20.77;60.53;100106.46;1709918;84;20147;-67
2022/07/26 00:48:00;;;;;;;;;;;;;;;20.73;60.54;100112.34;1710041;82;20147;-67
2022/07/26 00:50:28;;;;;;;;;;;;;;;20.72;60.60;100115.37;1709815;84;20438;-67
2022/07/26 00:52:55;;;;;;;;;;;;;;;20.69;60.59;100111.41;1709797;84;20126;-67
2022/07/26 00:55:21;;;;;;;;;;;;;;;20.69;60.66;100108.69;1709994;84;21140;-67
2022/07/26 00:57:48;;;;;;;;;;;;;;;20.69;60.73;100107.33;1710033;84;20143;-67
2022/07/26 01:00:18;;;;;;;;;;;;;;;20.67;60.90;100102.83;1710033;84;20466;-67
2022/07/26 01:02:44;;;;;;;;;;;;;;;20.64;61.70;100101.34;1709798;84;20162;-67
2022/07/26 01:05:11;;;;;;;;;;;;;;;20.53;62.45;100091.46;1709943;82;20143;-66
2022/07/26 01:07:38;;;;;;;;;;;;;;;20.46;62.92;100089.84;1709995;82;21166;-67
2022/07/26 01:10:07;;;;;;;;;;;;;;;20.41;63.36;100093.56;1709790;82;20152;-66
2022/07/26 01:12:34;;;;;;;;;;;;;;;20.38;63.86;100092.30;1709873;82;20147;-66
2022/07/26 01:15:00;;;;;;;;;;;;;;;20.33;64.45;100094.42;1709735;84;20438;-67
2022/07/26 01:17:26;;;;;;;;;;;;;;;20.28;64.99;100095.44;1709961;82;20147;-66
2022/07/26 01:19:53;;;;;;;;;;;;;;;20.23;65.34;100094.27;1709886;84;21169;-66
2022/07/26 01:22:19;;;;;;;;;;;;;;;20.22;65.70;100090.55;1709919;82;20147;-67
2022/07/26 01:24:46;;;;;;;;;;;;;;;20.23;65.85;100094.27;1709874;84;20131;-66
2022/07/26 01:27:13;;;;;;;;;;;;;;;20.18;66.05;100091.78;1710004;82;20726;-66
2022/07/26 01:29:39;;;;;;;;;;;;;;;20.14;66.23;100101.71;1709948;84;20477;-67
2022/07/26 01:32:06;;;;;;;;;;;;;;;20.11;66.47;100099.66;1709783;82;21172;-67
2022/07/26 01:34:34;;;;;;;;;;;;;;;20.09;66.68;100101.90;1681325;84;20253;-67
2022/07/26 01:37:01;;;;;;;;;;;;;;;20.07;66.81;100101.42;1709721;84;20446;-68
2022/07/26 01:39:28;;;;;;;;;;;;;;;20.05;66.97;100100.41;1710017;82;20171;-67
2022/07/26 01:41:55;;;;;;;;;;;;;;;20.05;67.06;100104.48;1710019;82;20143;-67
2022/07/26 01:44:22;;;;;;;;;;;;;;;20.03;67.13;100097.23;1710008;82;21176;-67
2022/07/26 01:46:49;;;;;;;;;;;;;;;20.00;67.19;100102.53;1709958;84;20155;-68
2022/07/26 01:49:17;;;;;;;;;;;;;;;19.97;67.34;100095.84;1709759;82;20193;-67
2022/07/26 01:51:44;;;;;;;;;;;;;;;19.94;67.50;100095.71;1709851;84;20131;-67
2022/07/26 01:54:11;;;;;;;;;;;;;;;19.90;67.66;100093.66;1710085;84;20148;-67
2022/07/26 01:56:37;;;;;;;;;;;;;;;19.87;67.76;100090.28;1710136;83;21222;-67
2022/07/26 01:59:04;;;;;;;;;;;;;;;19.82;67.89;100095.89;1710032;82;20461;-67
2022/07/26 02:01:30;;;;;;;;;;;;;;;19.79;68.00;100101.97;1709863;84;20147;-67
2022/07/26 02:03:57;;;;;;;;;;;;;;;19.77;68.08;100098.78;1710121;82;20861;-66
2022/07/26 02:06:24;;;;;;;;;;;;;;;19.75;68.16;100100.25;1709280;82;20194;-67
2022/07/26 02:08:51;;;;;;;;;;;;;;;19.75;68.25;100102.41;1709593;82;21106;-67
2022/07/26 02:11:18;;;;;;;;;;;;;;;19.73;68.29;100099.22;1709664;82;20154;-67
2022/07/26 02:13:46;;;;;;;;;;;;;;;19.71;68.38;100098.77;1709419;82;20143;-67
2022/07/26 02:16:14;;;;;;;;;;;;;;;19.71;68.51;100097.95;1709993;82;20140;-68
2022/07/26 02:18:48;;;;;;;;;;;;;;;19.68;68.60;100096.72;1709595;82;20150;-67
2022/07/26 02:21:21;;;;;;;;;;;;;;;19.64;68.74;100095.77;1709889;82;21162;-67
2022/07/26 02:23:58;;;;;;;;;;;;;;;19.63;68.76;100099.58;1709711;82;20182;-67
2022/07/26 02:26:26;;;;;;;;;;;;;;;19.64;68.80;100092.52;1709962;82;20147;-66
2022/07/26 02:28:56;;;;;;;;;;;;;;;19.63;68.91;100094.97;1709705;82;20174;-67
2022/07/26 02:31:28;;;;;;;;;;;;;;;19.63;68.97;100098.22;1709790;82;20146;-67
2022/07/26 02:33:55;;;;;;;;;;;;;;;19.62;69.02;100102.84;1707599;82;21293;-67
2022/07/26 02:36:21;;;;;;;;;;;;;;;19.62;69.09;100097.43;1709566;82;20488;-68
2022/07/26 02:38:48;;;;;;;;;;;;;;;19.64;69.15;100103.36;1710548;84;20134;-69
2022/07/26 02:41:14;;;;;;;;;;;;;;;19.41;69.91;100096.59;1709961;84;20139;-66
2022/07/26 02:43:40;;;;;;;;;;;;;;;19.37;70.21;100096.45;1710083;82;20433;-67
2022/07/26 02:46:07;;;;;;;;;;;;;;;19.38;70.35;100104.01;1709972;82;21359;-67
2022/07/26 02:48:33;;;;;;;;;;;;;;;19.39;70.45;100099.64;1709963;83;20163;-67
2022/07/26 02:51:00;;;;;;;;;;;;;;;19.40;70.50;100096.36;1709865;82;20445;-67
2022/07/26 02:53:26;;;;;;;;;;;;;;;19.40;70.54;100098.51;1709502;82;20218;-67
2022/07/26 02:55:52;;;;;;;;;;;;;;;19.35;70.67;100097.92;1709767;82;20171;-67
2022/07/26 02:58:23;;;;;;;;;;;;;;;19.32;70.82;100092.59;1709781;82;21170;-68
2022/07/26 03:00:49;;;;;;;;;;;;;;;19.33;70.92;100093.38;1709856;82;20426;-67
2022/07/26 03:03:16;;;;;;;;;;;;;;;19.36;70.87;100101.64;1709884;82;20147;-67
2022/07/26 03:05:43;;;;;;;;;;;;;;;19.40;70.73;100099.07;1709576;82;20159;-67
2022/07/26 03:08:09;;;;;;;;;;;;;;;19.41;70.73;100103.36;1710017;82;20139;-67
2022/07/26 03:10:36;;;;;;;;;;;;;;;19.49;70.71;100103.09;1709626;82;21749;-67
2022/07/26 03:13:02;;;;;;;;;;;;;;;19.52;70.65;100093.75;1709924;82;20198;-67
2022/07/26 03:15:28;;;;;;;;;;;;;;;19.55;70.59;100099.08;1709800;82;20151;-67
2022/07/26 03:17:55;;;;;;;;;;;;;;;19.60;70.47;100100.23;1709767;82;20437;-67
2022/07/26 03:20:21;;;;;;;;;;;;;;;19.64;70.27;100095.23;1709858;82;20167;-67
2022/07/26 03:22:47;;;;;;;;;;;;;;;19.67;69.94;100095.11;1709813;82;21176;-67
2022/07/26 03:25:14;;;;;;;;;;;;;;;19.71;69.75;100093.35;1709654;82;20180;-67
2022/07/26 03:27:40;;;;;;;;;;;;;;;19.75;69.54;100099.69;1709913;82;20142;-69
2022/07/26 03:30:08;;;;;;;;;;;;;;;19.79;69.36;100104.67;1709905;84;20641;-68
2022/07/26 03:32:35;;;;;;;;;;;;;;;19.84;69.30;100102.32;1710059;84;20405;-68
2022/07/26 03:35:02;;;;;;;;;;;;;;;19.91;69.20;100097.98;1710099;82;21225;-67
2022/07/26 03:37:29;;;;;;;;;;;;;;;19.95;69.00;100102.73;1709854;84;20184;-67
2022/07/26 03:39:56;;;;;;;;;;;;;;;19.99;68.46;100099.59;1709990;82;20147;-67
2022/07/26 03:42:22;;;;;;;;;;;;;;;20.00;68.32;100097.10;1710073;84;20148;-67
2022/07/26 03:44:48;;;;;;;;;;;;;;;20.04;67.92;100096.12;1710102;82;20178;-67
2022/07/26 03:47:14;;;;;;;;;;;;;;;20.04;67.94;100092.59;1709914;82;21166;-67
2022/07/26 03:49:41;;;;;;;;;;;;;;;20.11;67.77;100099.66;1710014;83;20191;-67
2022/07/26 03:52:09;;;;;;;;;;;;;;;20.17;67.32;100095.63;1710087;84;20143;-67
2022/07/26 03:54:36;;;;;;;;;;;;;;;20.18;66.78;100092.34;1709759;82;20139;-67
2022/07/26 03:57:02;;;;;;;;;;;;;;;20.19;66.49;100093.36;1710001;82;20144;-67
2022/07/26 03:59:29;;;;;;;;;;;;;;;20.25;66.29;100099.38;1708182;82;21162;-67
2022/07/26 04:01:55;;;;;;;;;;;;;;;20.30;66.23;100096.44;1739715;81;20136;-67
2022/07/26 04:04:22;;;;;;;;;;;;;;;20.38;66.05;100100.44;1739581;81;20164;-67
2022/07/26 04:06:48;;;;;;;;;;;;;;;20.44;65.63;100096.17;1738455;81;20163;-67
2022/07/26 04:09:15;;;;;;;;;;;;;;;20.52;65.32;100098.03;1737912;81;20203;-67
2022/07/26 04:11:42;;;;;;;;;;;;;;;20.56;65.18;100099.72;1739592;81;21109;-67
2022/07/26 04:14:09;;;;;;;;;;;;;;;20.64;64.91;100102.70;1738520;81;20153;-67
2022/07/26 04:16:35;;;;;;;;;;;;;;;20.72;64.78;100100.45;1738606;81;20140;-67
2022/07/26 04:19:02;;;;;;;;;;;;;;;20.84;64.55;100107.27;1739780;81;20619;-67
2022/07/26 04:21:28;;;;;;;;;;;;;;;20.94;64.28;100106.03;1737827;81;20485;-67
2022/07/26 04:23:55;;;;;;;;;;;;;;;21.04;64.12;100108.31;1740047;81;21178;-67
2022/07/26 04:26:22;;;;;;;;;;;;;;;21.06;64.00;100110.13;1739480;81;20164;-67
2022/07/26 04:28:48;;;;;;;;;;;;;;;21.14;63.61;100105.14;1736255;81;20151;-67
2022/07/26 04:31:15;;;;;;;;;;;;;;;21.25;63.30;100106.27;1739322;81;20199;-67
2022/07/26 04:33:41;;;;;;;;;;;;;;;21.36;63.05;100105.88;1739672;81;20144;-67
2022/07/26 04:36:08;;;;;;;;;;;;;;;21.41;62.93;100113.20;1737182;81;21169;-68
2022/07/26 04:38:34;;;;;;;;;;;;;;;21.50;62.61;100110.38;1739522;81;20084;-67
2022/07/26 04:41:00;;;;;;;;;;;;;;;21.58;62.17;100114.89;1739881;81;20199;-67
2022/07/26 04:43:27;;;;;;;;;;;;;;;21.65;61.90;100113.77;1739781;81;20205;-68
2022/07/26 04:45:53;;;;;;;;;;;;;;;21.73;61.38;100117.48;1739108;81;20203;-67
2022/07/26 04:48:20;;;;;;;;;;;;;;;21.77;60.95;100119.16;1739303;81;21152;-67
2022/07/26 04:50:46;;;;;;;;;;;;;;;21.83;61.06;100118.94;1737344;81;20140;-66
2022/07/26 04:53:12;;;;;;;;;;;;;;;21.91;60.62;100120.72;1739525;81;20423;-66
2022/07/26 04:55:39;;;;;;;;;;;;;;;21.95;60.27;100124.36;1740138;81;20152;-66
2022/07/26 04:58:05;;;;;;;;;;;;;;;21.98;59.99;100123.64;1739401;81;20426;-67
2022/07/26 05:00:32;;;;;;;;;;;;;;;22.04;60.00;100119.55;1740108;81;21249;-67
2022/07/26 05:02:59;;;;;;;;;;;;;;;22.12;60.17;100120.56;1743100;81;20164;-67
2022/07/26 05:05:27;;;;;;;;;;;;;;;22.17;59.80;100122.48;1742855;81;20144;-67
2022/07/26 05:07:56;;;;;;;;;;;;;;;22.26;59.77;100122.92;1739612;81;20171;-67
2022/07/26 05:10:29;;;;;;;;;;;;;;;22.32;59.22;100121.54;1739478;81;20168;-66
2022/07/26 05:12:55;;;;;;;;;;;;;;;22.38;58.67;100119.58;1738162;81;21190;-67
2022/07/26 05:15:22;;;;;;;;;;;;;;;22.42;58.50;100117.75;1739916;81;20144;-67
2022/07/26 05:17:48;;;;;;;;;;;;;;;22.46;57.90;100121.92;1738782;81;20168;-68
2022/07/26 05:20:15;;;;;;;;;;;;;;;22.48;57.92;100119.66;1739202;81;20136;-68
2022/07/26 05:22:41;;;;;;;;;;;;;;;22.54;57.90;100125.07;1741171;81;20526;-67
2022/07/26 05:25:07;;;;;;;;;;;;;;;22.62;57.27;100123.32;1743083;81;21152;-67
2022/07/26 05:27:34;;;;;;;;;;;;;;;22.65;57.18;100124.77;1742329;81;20147;-76
2022/07/26 05:30:00;;;;;;;;;;;;;;;22.70;57.21;100124.53;1739363;81;20207;-66
2022/07/26 05:32:29;;;;;;;;;;;;;;;22.78;56.94;100124.14;1741116;81;20830;-67
2022/07/26 05:34:56;;;;;;;;;;;;;;;22.88;56.82;100132.36;1741642;81;20173;-66
2022/07/26 05:37:22;;;;;;;;;;;;;;;22.95;56.85;100128.48;1739660;81;21146;-66
2022/07/26 05:39:48;;;;;;;;;;;;;;;23.00;56.20;100130.95;1738927;81;20432;-67
2022/07/26 05:42:15;;;;;;;;;;;;;;;23.03;56.03;100126.14;1739696;81;20168;-66
2022/07/26 05:44:41;;;;;;;;;;;;;;;23.05;56.13;100126.59;1741694;81;20152;-66
2022/07/26 05:47:08;;;;;;;;;;;;;;;23.05;55.71;100129.31;1743317;82;20161;-67
2022/07/26 05:49:35;;;;;;;;;;;;;;;22.71;56.54;100130.19;1741493;81;21808;-66
2022/07/26 05:52:02;;;;;;;;;;;;;;;22.70;56.83;100124.53;1739662;81;20386;-67
2022/07/26 05:54:29;;;;;;;;;;;;;;;23.17;55.79;100129.23;1740054;81;20203;-67
2022/07/26 05:56:55;;;;;;;;;;;;;;;23.30;55.14;100125.84;1737977;81;20518;-68
2022/07/26 05:59:21;;;;;;;;;;;;;;;23.37;55.08;100125.22;1739645;81;20136;-68
2022/07/26 06:01:49;;;;;;;;;;;;;;;23.42;54.90;100127.66;1738157;81;21081;-67
2022/07/26 06:04:15;;;;;;;;;;;;;;;23.45;54.92;100131.05;1739184;81;20140;-69
2022/07/26 06:06:42;;;;;;;;;;;;;;;23.52;54.97;100124.97;1740524;81;20141;-67
2022/07/26 06:09:08;;;;;;;;;;;;;;;23.61;54.59;100131.81;1742861;81;20713;-68
2022/07/26 06:11:34;;;;;;;;;;;;;;;23.68;54.56;100123.03;1742840;82;20172;-68
2022/07/26 06:14:01;;;;;;;;;;;;;;;23.74;54.14;100116.16;1740552;81;21198;-69
2022/07/26 06:16:27;;;;;;;;;;;;;;;23.79;53.78;100117.80;1735851;81;20156;-66
2022/07/26 06:18:54;;;;;;;;;;;;;;;23.88;53.99;100118.39;1739388;81;20253;-67
2022/07/26 06:21:20;;;;;;;;;;;;;;;23.97;53.49;100120.92;1742879;81;20805;-68
2022/07/26 06:23:46;;;;;;;;;;;;;;;24.06;53.35;100118.78;1743306;81;20308;-67
2022/07/26 06:26:13;;;;;;;;;;;;;;;24.10;52.60;100116.33;1741297;81;21096;-67
2022/07/26 06:28:39;;;;;;;;;;;;;;;24.04;52.74;100113.66;1742793;81;20467;-67
2022/07/26 06:31:06;;;;;;;;;;;;;;;24.05;53.17;100115.27;1742793;81;20132;-68
2022/07/26 06:33:33;;;;;;;;;;;;;;;24.14;52.93;100110.94;1742643;81;20152;-67
2022/07/26 06:36:00;;;;;;;;;;;;;;;24.21;52.24;100108.34;1742482;81;20160;-67
2022/07/26 06:38:26;;;;;;;;;;;;;;;24.22;52.33;100101.77;1742789;81;20886;-67
2022/07/26 06:40:53;;;;;;;;;;;;;;;24.27;52.49;100107.49;1740175;81;20250;-67
2022/07/26 06:43:20;;;;;;;;;;;;;;;24.33;51.97;100101.37;1739263;81;20212;-67
2022/07/26 06:45:48;;;;;;;;;;;;;;;24.44;51.97;100092.05;1739101;81;20761;-67
2022/07/26 06:48:14;;;;;;;;;;;;;;;24.55;51.59;100094.42;1736639;81;20394;-67
2022/07/26 06:50:41;;;;;;;;;;;;;;;24.63;51.19;100092.59;1739206;81;21161;-66
2022/07/26 06:53:07;;;;;;;;;;;;;;;24.70;51.11;100090.56;1739250;81;20175;-67
2022/07/26 06:55:33;;;;;;;;;;;;;;;24.74;50.42;100085.95;1740317;82;20132;-67
2022/07/26 06:58:00;;;;;;;;;;;;;;;24.77;50.85;100092.05;1739760;81;20185;-67
2022/07/26 07:00:26;;;;;;;;;;;;;;;24.83;50.90;100089.23;1739568;81;20195;-67
2022/07/26 07:02:52;;;;;;;;;;;;;;;24.93;50.48;100086.47;1740162;81;21110;-67
2022/07/26 07:05:18;;;;;;;;;;;;;;;24.99;50.61;100086.38;1737965;81;20226;-65
2022/07/26 07:07:45;;;;;;;;;;;;;;;24.69;50.63;100078.86;1738486;81;20199;-66
2022/07/26 07:10:11;;;;;;;;;;;;;;;24.66;50.56;100085.05;1739195;81;20148;-65
2022/07/26 07:12:38;;;;;;;;;;;;;;;25.01;50.04;100073.93;1743180;81;20174;-66
2022/07/26 07:15:06;;;;;;;;;;;;;;;25.16;49.65;100074.95;1743411;82;22117;-66
2022/07/26 07:17:33;;;;;;;;;;;;;;;25.24;49.03;100069.04;1739912;81;20607;-65
2022/07/26 07:20:00;;;;;;;;;;;;;;;25.35;48.84;100069.97;1739162;81;20154;-66
2022/07/26 07:22:27;;;;;;;;;;;;;;;25.06;48.98;100062.47;1739344;81;20160;-65
2022/07/26 07:24:54;;;;;;;;;;;;;;;25.08;49.40;100060.95;1737024;81;20469;-66
2022/07/26 07:27:20;;;;;;;;;;;;;;;25.06;49.35;100065.98;1738519;81;20841;-66
2022/07/26 07:29:46;;;;;;;;;;;;;;;25.58;48.48;100064.43;1740965;81;20148;-67
2022/07/26 07:32:13;;;;;;;;;;;;;;;25.92;47.43;100064.48;1743091;81;20144;-66
2022/07/26 07:34:39;;;;;;;;;;;;;;;26.00;47.27;100066.16;1742720;81;20175;-66
2022/07/26 07:37:06;;;;;;;;;;;;;;;25.88;47.65;100059.56;1739179;81;20186;-67
2022/07/26 07:39:33;;;;;;;;;;;;;;;25.79;47.66;100062.54;1739179;81;21150;-66
2022/07/26 07:41:59;;;;;;;;;;;;;;;25.73;47.46;100062.10;1741357;81;20156;-67
2022/07/26 07:44:26;;;;;;;;;;;;;;;25.48;47.98;100068.59;1742981;81;20415;-66
2022/07/26 07:46:53;;;;;;;;;;;;;;;25.64;47.34;100070.38;1741176;81;20179;-66
2022/07/26 07:49:20;;;;;;;;;;;;;;;25.72;46.63;100060.50;1741206;81;20168;-66
2022/07/26 07:51:47;;;;;;;;;;;;;;;25.76;46.90;100068.75;1742952;81;21987;-65
2022/07/26 07:54:14;;;;;;;;;;;;;;;25.81;46.42;100064.95;1740619;81;20144;-66
2022/07/26 07:56:42;;;;;;;;;;;;;;;25.84;46.77;100069.68;1739802;81;20145;-66
2022/07/26 07:59:08;;;;;;;;;;;;;;;25.88;46.18;100075.98;1739642;81;20572;-66
2022/07/26 08:01:35;;;;;;;;;;;;;;;25.87;45.86;100079.30;1739672;82;20439;-65
2022/07/26 08:04:02;;;;;;;;;;;;;;;25.85;45.80;100080.23;1739869;82;21208;-66
2022/07/26 08:06:30;;;;;;;;;;;;;;;25.84;45.82;100084.14;1739636;81;20135;-68
2022/07/26 08:08:56;;;;;;;;;;;;;;;25.89;46.20;100085.75;1739734;82;20443;-65
2022/07/26 08:11:23;;;;;;;;;;;;;;;25.93;46.75;100081.92;1739609;81;20191;-67
2022/07/26 08:13:50;;;;;;;;;;;;;;;25.96;45.94;100083.91;1739515;81;20469;-65
2022/07/26 08:16:16;;;;;;;;;;;;;;;25.97;46.04;100081.95;1739611;81;21158;-66
2022/07/26 08:18:42;;;;;;;;;;;;;;;26.06;45.08;100092.59;1739749;81;20133;-66
2022/07/26 08:21:09;;;;;;;;;;;;;;;26.14;44.85;100076.48;1742436;82;20140;-66
2022/07/26 08:23:35;;;;;;;;;;;;;;;26.25;45.03;100084.22;1743553;82;20458;-66
2022/07/26 08:26:02;;;;;;;;;;;;;;;26.34;44.55;100075.13;1743031;81;20144;-67
2022/07/26 08:28:29;;;;;;;;;;;;;;;26.46;44.88;100082.30;1743209;81;21067;-66
2022/07/26 08:30:55;;;;;;;;;;;;;;;26.57;43.57;100079.11;1742933;81;20565;-66
2022/07/26 08:33:22;;;;;;;;;;;;;;;26.63;43.66;100074.08;1743044;82;20148;-65
2022/07/26 08:35:49;;;;;;;;;;;;;;;26.74;43.73;100075.54;1742898;82;20454;-65
2022/07/26 08:38:15;;;;;;;;;;;;;;;26.83;43.69;100075.42;1743242;81;20160;-67
2022/07/26 08:40:42;;;;;;;;;;;;;;;26.88;43.93;100068.23;1742372;81;21165;-66
2022/07/26 08:43:10;;;;;;;;;;;;;;;26.54;43.77;100072.23;1741341;81;20431;-66
2022/07/26 08:45:36;;;;;;;;;;;;;;;26.22;44.03;100075.97;1739269;80;20521;-66
2022/07/26 08:48:03;;;;;;;;;;;;;;;26.12;44.97;100071.95;1741423;81;20142;-66
2022/07/26 08:50:32;;;;;;;;;;;;;;;26.18;45.08;100073.20;1731977;82;20446;-67
2022/07/26 08:53:00;;;;;;;;;;;;;;;26.65;43.77;100073.09;1734117;82;21112;-67
2022/07/26 08:55:27;;;;;;;;;;;;;;;26.79;43.32;100068.36;1746610;81;20214;-65
2022/07/26 08:57:53;;;;;;;;;;;;;;;26.93;42.78;100078.64;1748172;80;20178;-68
2022/07/26 09:00:28;;;;;;;;;;;;;;;27.05;42.71;100064.05;1739563;81;20186;-69
2022/07/26 09:02:54;;;;;;;;;;;;;;;27.18;41.74;100054.97;1738925;81;20169;-66
2022/07/26 09:05:30;;;;;;;;;;;;;;;27.21;41.79;100055.55;1738778;81;21124;-66
2022/07/26 09:07:57;;;;;;;;;;;;;;;27.23;41.67;100057.34;1738772;81;20132;-66
2022/07/26 09:10:24;;;;;;;;;;;;;;;27.25;41.37;100055.02;1739817;81;20144;-67
2022/07/26 09:12:55;;;;;;;;;;;;;;;27.27;42.08;100058.14;1738875;81;20172;-66
2022/07/26 09:15:24;;;;;;;;;;;;;;;27.29;41.62;100056.41;1739924;81;20215;-66
2022/07/26 09:17:53;;;;;;;;;;;;;;;27.47;41.81;100049.64;1742119;81;21904;-66
2022/07/26 09:20:26;;;;;;;;;;;;;;;27.41;41.75;100047.87;1743288;82;20168;-66
2022/07/26 09:23:08;;;;;;;;;;;;;;;27.30;41.24;100057.97;1742713;81;20132;-66
2022/07/26 09:25:42;;;;;;;;;;;;;;;27.22;41.14;100047.55;1743241;81;20175;-66
2022/07/26 09:28:23;;;;;;;;;;;;;;;27.23;41.71;100044.22;1741596;81;20214;-66
2022/07/26 09:30:53;;;;;;;;;;;;;;;27.28;41.92;100048.77;1738401;81;21267;-66
2022/07/26 09:33:19;;;;;;;;;;;;;;;27.34;42.26;100032.72;1738685;81;20183;-66
2022/07/26 09:36:01;;;;;;;;;;;;;;;27.43;41.34;100029.64;1743325;81;20194;-66
2022/07/26 09:38:46;;;;;;;;;;;;;;;27.49;40.96;100023.41;1741999;82;20195;-67
2022/07/26 09:41:21;;;;;;;;;;;;;;;27.63;41.29;100014.45;1739673;81;20254;-65
2022/07/26 09:43:49;;;;;;;;;;;;;;;27.83;39.93;100024.55;1739318;81;21257;-66
2022/07/26 09:46:16;;;;;;;;;;;;;;;27.95;38.58;100029.69;1736473;81;20184;-66
2022/07/26 09:48:42;;;;;;;;;;;;;;;28.04;37.88;100025.22;1736281;81;20157;-66
2022/07/26 09:51:09;;;;;;;;;;;;;;;28.13;38.31;100023.45;1739043;81;20149;-66
2022/07/26 09:53:41;;;;;;;;;;;;;;;28.15;38.34;100034.25;1738837;81;20144;-66
2022/07/26 09:56:08;;;;;;;;;;;;;;;28.16;37.44;100027.58;1738833;81;21793;-66
2022/07/26 09:58:35;;;;;;;;;;;;;;;28.22;38.97;100024.65;1739199;81;20554;-65
2022/07/26 10:01:03;;;;;;;;;;;;;;;28.38;38.63;100030.37;1739156;81;20215;-66
2022/07/26 10:03:30;;;;;;;;;;;;;;;28.52;37.71;100031.78;1740011;81;20202;-66
2022/07/26 10:05:58;;;;;;;;;;;;;;;28.65;37.10;100031.58;1740885;81;20477;-66
2022/07/26 10:08:25;;;;;;;;;;;;;;;28.71;37.14;100034.14;1741675;82;21160;-66
2022/07/26 10:11:04;;;;;;;;;;;;;;;28.70;37.09;100036.70;1741664;82;20132;-66
2022/07/26 10:13:30;;;;;;;;;;;;;;;28.64;36.93;100034.73;1741922;82;20207;-68
2022/07/26 10:15:59;;;;;;;;;;;;;;;28.54;37.64;100032.78;1742967;81;20135;-66
2022/07/26 10:18:39;;;;;;;;;;;;;;;28.49;37.72;100037.46;1743237;82;20470;-65
2022/07/26 10:21:28;;;;;;;;;;;;;;;28.48;37.21;100024.91;1743357;82;21181;-65
2022/07/26 10:24:08;;;;;;;;;;;;;;;28.58;37.32;100021.19;1743319;81;20133;-66
2022/07/26 10:26:36;;;;;;;;;;;;;;;28.63;37.49;100022.97;1736896;81;20124;-67
2022/07/26 10:29:20;;;;;;;;;;;;;;;28.76;37.18;100020.61;1743292;82;20136;-66
2022/07/26 10:31:49;;;;;;;;;;;;;;;28.94;36.55;100017.83;1743158;81;20423;-66
2022/07/26 10:34:36;;;;;;;;;;;;;;;29.18;36.52;100017.02;1743488;81;21076;-67
2022/07/26 10:37:12;;;;;;;;;;;;;;;29.43;35.60;100018.93;1741746;81;20164;-66
2022/07/26 10:39:39;;;;;;;;;;;;;;;29.63;34.89;100012.39;1740593;81;20148;-67
2022/07/26 10:42:07;;;;;;;;;;;;;;;29.72;34.42;100015.50;1740747;81;20140;-67
2022/07/26 10:44:38;;;;;;;;;;;;;;;29.68;34.48;100014.15;1743173;81;20203;-65
2022/07/26 10:47:10;;;;;;;;;;;;;;;29.63;35.46;100013.77;1742990;81;21271;-66
2022/07/26 10:49:42;;;;;;;;;;;;;;;29.55;35.62;100013.56;1742799;81;20199;-67
2022/07/26 10:52:18;;;;;;;;;;;;;;;29.44;36.10;100015.77;1742527;81;20141;-66
2022/07/26 10:55:02;;;;;;;;;;;;;;;29.42;35.90;100015.99;1743222;81;20144;-67
2022/07/26 10:57:34;;;;;;;;;;;;;;;29.55;35.32;100007.49;1743013;81;20447;-67
2022/07/26 11:00:04;;;;;;;;;;;;;;;29.61;35.18;99999.02;1742651;81;21851;-66
2022/07/26 11:02:31;;;;;;;;;;;;;;;29.75;34.06;100005.67;1742628;81;20439;-66
2022/07/26 11:05:13;;;;;;;;;;;;;;;29.78;34.13;100004.84;1742738;81;20546;-66
2022/07/26 11:07:50;;;;;;;;;;;;;;;29.83;33.90;99996.95;1742943;81;20162;-67
2022/07/26 11:10:28;;;;;;;;;;;;;;;29.77;34.27;100010.16;1743290;81;20184;-66
2022/07/26 11:13:02;;;;;;;;;;;;;;;29.56;34.09;100006.90;1742324;81;21172;-65
2022/07/26 11:15:30;;;;;;;;;;;;;;;29.28;34.68;100010.52;1742901;81;20152;-66
2022/07/26 11:18:12;;;;;;;;;;;;;;;29.08;34.66;100011.55;1742773;81;20443;-67
2022/07/26 11:20:38;;;;;;;;;;;;;;;28.94;34.59;100010.96;1742536;81;20294;-66
2022/07/26 11:23:19;;;;;;;;;;;;;;;28.79;34.74;100006.65;1742902;81;20149;-68
2022/07/26 11:26:04;;;;;;;;;;;;;;;28.75;34.89;100008.03;1742588;81;21113;-66
2022/07/26 11:28:54;;;;;;;;;;;;;;;28.90;34.89;100005.47;1742871;81;20152;-66
2022/07/26 11:31:24;;;;;;;;;;;;;;;29.13;34.60;100007.03;1742947;82;20183;-65
2022/07/26 11:33:52;;;;;;;;;;;;;;;29.30;34.25;100002.66;1743131;81;20231;-66
2022/07/26 11:36:39;;;;;;;;;;;;;;;29.27;34.06;99998.73;1743292;82;20159;-67
2022/07/26 11:39:16;;;;;;;;;;;;;;;29.22;34.74;100006.03;1743147;81;21128;-66
2022/07/26 11:41:42;;;;;;;;;;;;;;;29.25;35.05;100006.59;1734903;81;20445;-66
2022/07/26 11:44:17;;;;;;;;;;;;;;;29.26;35.82;100004.05;1743245;82;20143;-66
2022/07/26 11:46:46;;;;;;;;;;;;;;;29.08;36.21;100011.55;1743269;82;20155;-66
2022/07/26 11:49:20;;;;;;;;;;;;;;;28.93;35.89;100003.91;1743000;81;20138;-66
2022/07/26 11:51:53;;;;;;;;;;;;;;;28.89;36.11;100005.28;1743200;82;21119;-65
2022/07/26 11:54:22;;;;;;;;;;;;;;;28.89;36.22;100001.16;1742925;81;20169;-66
2022/07/26 11:57:02;;;;;;;;;;;;;;;28.89;36.14;99998.41;1743538;81;20190;-66
2022/07/26 11:59:30;;;;;;;;;;;;;;;28.90;35.81;99995.84;1743200;81;20192;-66
2022/07/26 12:01:57;;;;;;;;;;;;;;;28.88;35.48;99998.20;1743137;82;20144;-66
2022/07/26 12:04:29;;;;;;;;;;;;;;;28.89;35.29;99996.23;1743024;81;21195;-65
2022/07/26 12:06:56;;;;;;;;;;;;;;;28.87;35.28;99990.36;1742959;81;20136;-65
2022/07/26 12:09:35;;;;;;;;;;;;;;;28.92;35.44;99988.00;1743007;82;20140;-66
2022/07/26 12:12:03;;;;;;;;;;;;;;;28.94;35.50;99991.72;1743089;82;20161;-68
2022/07/26 12:14:33;;;;;;;;;;;;;;;29.14;35.76;99987.38;1743191;81;20144;-67
2022/07/26 12:17:11;;;;;;;;;;;;;;;28.97;36.12;99985.43;1742993;81;21235;-66
2022/07/26 12:19:40;;;;;;;;;;;;;;;29.07;36.55;99987.99;1742994;81;20140;-66
2022/07/26 12:22:14;;;;;;;;;;;;;;;29.22;35.49;99982.66;1742991;81;20160;-66
2022/07/26 12:24:48;;;;;;;;;;;;;;;29.37;35.66;99976.50;1743376;82;20182;-66
2022/07/26 12:27:19;;;;;;;;;;;;;;;29.58;35.27;99981.13;1736977;82;20534;-67
2022/07/26 12:29:48;;;;;;;;;;;;;;;29.79;34.98;99967.89;1742977;81;21159;-66
2022/07/26 12:32:23;;;;;;;;;;;;;;;30.03;34.48;99963.41;1742608;80;20144;-66
2022/07/26 12:35:01;;;;;;;;;;;;;;;30.21;33.62;99968.81;1743185;82;20137;-66
2022/07/26 12:37:29;;;;;;;;;;;;;;;30.36;33.16;99971.05;1742868;82;20187;-66
2022/07/26 12:40:08;;;;;;;;;;;;;;;30.39;33.08;99962.58;1743484;81;20182;-66
2022/07/26 12:42:37;;;;;;;;;;;;;;;30.32;32.76;99963.42;1743219;82;21161;-66
2022/07/26 12:45:07;;;;;;;;;;;;;;;30.11;33.09;99962.19;1742186;81;20136;-66